Madawaska, ME

1:41 PM EDT on August 30, 2014 (GMT -0400)
K1FTK | Change Station
CLOSE
Current Station
Personal Weather Station
Location: Saint Agatha, ME
Elevation: 825 ft
Nearby Weather Stations

Elev 825 ft 47.25 °N, 68.35 °W | Updated 51 seconds ago

Overcast
Overcast
69.7 °F
Feels Like 69.7 °F
N
5.0
Wind Variable Wind from SW
Gusts 5.0 mph

Today
High -- | Low -- °F
--% Chance of Precip.
Yesterday
High -- | Low -- °F
Precip. -- in
5:49 AM 7:17 PM
Waxing Crescent, 23% visible
Pressure 30.05 in
Visibility 10.0 miles
Clouds Few 4000 ft
Mostly Cloudy 8500 ft
Overcast 11000 ft
Dew Point 59 °F
Humidity 68%
Rainfall 0.00 in
Snow Depth Not available.
UV 2 out of 12
Pollen 6.80 out of 12
Ozone Good
PM2.5 Good
Flu Activity Not available.
METAR KFVE 301653Z AUTO 23008G18KT 10SM FEW040 BKN085 OVC110 21/12 A3005 RMK AO2 SLP176 T02060122

More Conditions Fewer Conditions

Pressure 30.05 in
Visibility 10.0 miles
Clouds Few 4000 ft
Mostly Cloudy 8500 ft
Overcast 11000 ft
Dew Point 59 °F
Humidity 68%
Rainfall 0.00 in
Snow Depth Not available.
UV 2 out of 12
Pollen 6.80 out of 12
Ozone Good
PM2.5 Good
Flu Activity Not available.
METAR KFVE 301653Z AUTO 23008G18KT 10SM FEW040 BKN085 OVC110 21/12 A3005 RMK AO2 SLP176 T02060122

More Conditions Fewer Conditions

10-Day Weather Forecast

Almanac

Astronomy

Aug. 30, 2014 Rise Set
Actual Time 5:49 AM EDT 7:17 PM EDT
Civil Twilight 5:17 AM EDT 7:49 PM EDT
Nautical Twilight 4:38 AM EDT 8:27 PM EDT
Astronomical Twilight 3:56 AM EDT 9:09 PM EDT
Moon 10:55 AM EDT 9:26 PM EDT
Length of Visible Light 14h 31m
Length of Day
13h 27m
Tomorrow will be 3m 16s shorter.
Waxing Crescent, 23% of the Moon is Illuminated
Today
Waxing Crescent
Sep 2
First Quarter
Sep 8
Full
Sep 15
Last Quarter
Sep 24
New

Today's Extremes

State Highs State Lows

Community

WunderPhotos

Upload Photos

1,748,581 photos uploaded!

WunderBlogs® & News

Nearby

Air Quality

  Air Quality AQ Index Pollutant
Yesterday Good
PM2.5
Current Good
OZONE
Current Good
PM2.5
Saturday Good
OZONE
Saturday Good
PM2.5
Sunday Good
OZONE
Sunday Good
PM2.5
Monday Good
OZONE
Monday Good
PM2.5
Tuesday Good
OZONE
Tuesday Good
PM2.5
Wednesday Good
OZONE
Wednesday Good
PM2.5

Snow Depth

Station Depth Elevation
No new snow has been reported.

Earthquake Activity

City Distance Mag. Time & Date
No recent earthquake activity has been reported nearby.
Minimum magnitude displayed is 2.5.

Coastal Water Temperatures

Place Temperature
No Stations Reporting

Nearby Weather Stations